EDT,Max TemperatureF,Mean TemperatureF,Min TemperatureF,Max Dew PointF,MeanDew PointF,Min DewpointF,Max Humidity, Mean Humidity, Min Humidity, Max Sea Level PressureIn, Mean Sea Level PressureIn, Min Sea Level PressureIn, Max VisibilityMiles, Mean VisibilityMiles, Min VisibilityMiles, Max Wind SpeedMPH, Mean Wind SpeedMPH, Max Gust SpeedMPH,PrecipitationIn, CloudCover, Events, WindDirDegrees
2012-9-1,91,81,70,73,65,56,90,64,30,30.04,30.00,29.96,10,10,6,8,4,,0.00,0,,317
2012-9-2,80,74,69,72,70,68,97,88,74,30.07,30.05,30.01,10,5,1,8,1,,0.05,6,Rain,98
2012-9-3,77,74,71,72,71,69,94,91,82,30.11,30.08,30.05,10,6,1,7,2,,0.38,8,Rain,100
2012-9-4,81,76,71,75,72,70,100,91,83,30.06,29.98,29.86,10,6,1,7,3,,1.05,7,Rain,119
2012-9-5,84,76,68,75,73,66,93,81,67,29.85,29.81,29.77,10,9,2,12,5,20,0.11,6,Rain,244
2012-9-6,79,72,64,71,67,63,94,84,64,29.92,29.88,29.84,10,9,2,5,0,,0.00,0,Rain,88
2012-9-7,88,77,66,71,67,64,100,83,51,29.94,29.90,29.84,10,5,1,8,2,,0.00,1,,202
2012-9-8,88,76,66,74,69,64,94,85,57,29.88,29.77,29.60,10,9,2,13,3,21,0.23,6,Rain,197
2012-9-9,78,70,63,63,56,49,90,65,37,29.91,29.84,29.80,10,10,10,8,3,,0.01,2,,318
2012-9-10,75,66,57,54,48,42,78,56,35,30.15,30.02,29.91,10,10,10,12,6,23,0.00,1,,331
2012-9-11,75,62,48,54,47,43,89,63,33,30.30,30.25,30.17,10,10,10,8,2,,0.00,0,,345
2012-9-12,80,65,50,56,52,47,93,68,39,30.38,30.34,30.30,10,10,10,5,0,,0.00,0,,163
2012-9-13,81,66,51,59,55,49,94,72,39,30.39,30.34,30.28,10,9,2,5,1,,0.00,0,,173
2012-9-14,82,68,54,62,57,52,94,75,41,30.30,30.20,30.10,10,9,2,5,1,,0.01,0,,164
2012-9-15,75,65,54,61,52,45,94,65,38,30.17,30.12,30.08,10,10,10,15,4,22,0.00,1,,334
2012-9-16,75,62,50,54,48,41,93,66,29,30.14,30.10,30.05,10,10,10,8,1,,0.00,1,,295
2012-9-17,77,62,46,61,51,46,97,65,34,30.13,30.07,30.02,10,10,10,6,1,,0.00,1,,155
2012-9-18,79,72,66,70,67,61,100,89,69,30.01,29.78,29.66,10,7,1,18,6,30,1.56,7,Rain,174
2012-9-19,70,60,50,66,53,44,94,72,40,30.17,29.98,29.77,10,10,10,13,7,24,0.00,4,Rain,321
2012-9-20,73,60,48,58,51,46,93,75,45,30.19,30.14,30.09,10,10,10,5,1,,0.01,2,,111
2012-9-21,77,63,51,59,55,50,100,80,48,30.11,30.07,30.01,10,9,2,8,1,,0.00,3,,113
2012-9-22,82,68,54,66,62,53,97,82,54,30.00,29.88,29.78,10,8,1,15,3,32,0.61,3,Rain,203
2012-9-23,69,59,48,63,46,40,96,61,37,30.14,30.05,29.90,10,10,6,12,5,17,0.00,2,,309
2012-9-24,66,56,45,47,42,36,93,66,32,30.20,30.15,30.12,10,10,10,12,2,16,0.00,1,,287
2012-9-25,73,59,45,54,49,42,90,70,46,30.22,30.17,30.14,10,10,10,13,3,20,0.00,1,,213
2012-9-26,80,71,62,64,59,55,84,70,48,30.12,30.08,30.03,10,10,10,15,4,21,0.01,4,,235
2012-9-27,75,68,62,65,63,60,100,88,62,30.18,30.13,30.06,10,6,1,6,1,,0.24,4,Rain,305
2012-9-28,77,72,66,67,65,57,94,83,60,30.12,30.02,29.93,10,8,3,7,2,,0.04,6,Rain,230
2012-9-29,64,59,53,55,53,50,97,77,63,29.96,29.93,29.90,10,10,10,9,3,,0.00,7,,297
2012-9-30,69,60,51,52,49,45,97,71,47,29.88,29.85,29.79,10,10,8,12,2,18,0.01,2,,254